Time;durP1;ratioP1;P1;durP2;ratioP2;P2;SDS_P1;SDS_P2;PMS_P1;PMS_P2;Temp;Humidity;BMP_temperature;BMP_pressure;BME280_temperature;BME280_humidity;BME280_pressure;Samples;Min_cycle;Max_cycle;Signal;HPM_P1;HPM_P2
2021/12/02 00:00:57;;;;;;;24.92;3.40;;;;;;;5.85;100.00;99384.69;5030813;28;20140;-73
2021/12/02 00:03:26;;;;;;;7.85;1.48;;;;;;;5.81;100.00;99383.91;5024682;28;20045;-73
2021/12/02 00:05:53;;;;;;;10.57;2.58;;;;;;;5.84;100.00;99386.66;5032369;28;20840;-73
2021/12/02 00:08:20;;;;;;;11.15;2.33;;;;;;;5.89;100.00;99393.69;5025062;28;20116;-73
2021/12/02 00:10:46;;;;;;;12.88;2.97;;;;;;;5.85;100.00;99384.69;5026468;28;20077;-75
2021/12/02 00:13:13;;;;;;;12.02;2.75;;;;;;;5.82;100.00;99391.78;5019921;28;20046;-76
2021/12/02 00:21:20;;;;;;;6.70;1.00;;;;;;;5.83;100.00;99398.03;5025842;28;20073;-73
2021/12/02 00:24:04;;;;;;;10.32;1.88;;;;;;;5.86;100.00;99399.97;5023414;28;20514;-73
2021/12/02 00:26:32;;;;;;;13.18;2.83;;;;;;;5.90;100.00;99400.78;5027794;28;20079;-74
2021/12/02 00:29:01;;;;;;;15.40;2.30;;;;;;;5.89;100.00;99407.44;5022872;28;20053;-72
2021/12/02 00:31:32;;;;;;;12.02;2.08;;;;;;;5.84;100.00;99402.34;5026533;28;20041;-75
2021/12/02 00:34:07;;;;;;;8.93;1.83;;;;;;;5.89;100.00;99401.94;5030291;28;20149;-74
2021/12/02 00:36:36;;;;;;;18.98;2.50;;;;;;;5.88;100.00;99397.63;5028167;28;20036;-76
2021/12/02 00:39:09;;;;;;;4.03;0.95;;;;;;;5.87;100.00;99404.31;5033146;28;20082;-73
2021/12/02 00:41:36;;;;;;;13.82;2.55;;;;;;;5.92;100.00;99401.94;5025157;28;20161;-75
2021/12/02 00:44:03;;;;;;;14.98;2.88;;;;;;;5.96;100.00;99399.16;5025302;28;20573;-73
2021/12/02 00:46:32;;;;;;;12.90;3.15;;;;;;;5.92;100.00;99412.91;5033820;28;20136;-73
2021/12/02 00:49:04;;;;;;;0.40;0.40;;;;;;;5.92;100.00;99410.19;5040686;28;20092;-73
2021/12/02 00:51:33;;;;;;;21.00;2.88;;;;;;;6.01;99.93;99409.75;5028234;28;20515;-74
2021/12/02 00:54:03;;;;;;;2.83;1.27;;;;;;;5.96;100.00;99405.44;5030571;28;20152;-73
2021/12/02 00:56:29;;;;;;;9.65;2.67;;;;;;;5.97;99.56;99404.25;5021872;28;20057;-74
2021/12/02 00:58:56;;;;;;;17.58;3.55;;;;;;;6.02;99.82;99406.59;5024373;28;20045;-73
2021/12/02 01:01:26;;;;;;;0.70;0.50;;;;;;;5.96;99.87;99418.38;5022080;28;20047;-72
2021/12/02 01:03:58;;;;;;;7.20;1.58;;;;;;;5.98;100.00;99414.09;5029741;28;20057;-72
2021/12/02 01:06:26;;;;;;;10.35;1.50;;;;;;;5.96;99.35;99418.38;5028751;28;20051;-76
2021/12/02 01:08:54;;;;;;;4.45;1.38;;;;;;;6.00;98.97;99421.91;5020899;28;20512;-75
2021/12/02 01:11:21;;;;;;;8.15;1.83;;;;;;;5.93;99.19;99413.69;5026553;28;20164;-76
2021/12/02 01:13:48;;;;;;;10.43;1.98;;;;;;;5.99;99.21;99412.09;5030111;28;20115;-72
2021/12/02 01:16:15;;;;;;;6.47;2.17;;;;;;;5.95;98.89;99414.88;5024026;28;20324;-73
2021/12/02 01:18:42;;;;;;;13.77;2.53;;;;;;;6.01;98.75;99421.50;5028237;28;20054;-72
2021/12/02 01:21:18;;;;;;;18.35;3.20;;;;;;;6.02;99.14;99425.81;5020034;28;20158;-75
2021/12/02 01:23:49;;;;;;;10.63;2.20;;;;;;;5.97;99.47;99425.47;5031844;28;20084;-72
2021/12/02 01:26:17;;;;;;;16.92;3.22;;;;;;;5.97;99.33;99426.22;5027466;28;20185;-73
2021/12/02 01:28:46;;;;;;;27.48;3.30;;;;;;;5.99;99.12;99420.34;5023559;28;20057;-74
2021/12/02 01:31:13;;;;;;;23.60;2.97;;;;;;;5.97;99.58;99417.22;5025987;28;20045;-73
2021/12/02 01:33:44;;;;;;;14.88;2.50;;;;;;;5.97;99.85;99415.25;5021824;28;20049;-73
2021/12/02 01:36:11;;;;;;;4.38;1.05;;;;;;;5.93;99.68;99425.47;5029520;28;20132;-73
2021/12/02 01:38:38;;;;;;;14.73;1.95;;;;;;;5.87;100.00;99434.50;5027183;28;20418;-73
2021/12/02 01:41:05;;;;;;;16.15;2.63;;;;;;;5.92;100.00;99434.09;5026987;28;20169;-72
2021/12/02 01:43:46;;;;;;;17.73;2.58;;;;;;;5.88;100.00;99438.81;5020669;28;20049;-73
2021/12/02 01:46:14;;;;;;;6.07;2.05;;;;;;;5.88;100.00;99436.84;5038422;28;20174;-74
2021/12/02 01:48:46;;;;;;;13.02;2.72;;;;;;;5.86;100.00;99422.75;5024792;28;20056;-73
2021/12/02 01:51:13;;;;;;;15.80;2.70;;;;;;;5.88;100.00;99423.13;5028313;28;20484;-75
2021/12/02 01:53:41;;;;;;;17.45;3.35;;;;;;;5.88;100.00;99427.81;5042319;28;20127;-73
2021/12/02 01:56:16;;;;;;;16.50;3.65;;;;;;;5.91;100.00;99424.28;5018272;28;20128;-73
2021/12/02 01:58:49;;;;;;;13.98;2.75;;;;;;;5.88;100.00;99425.09;5023113;28;20056;-71
2021/12/02 02:01:24;;;;;;;6.97;2.20;;;;;;;5.82;100.00;99416.47;5020829;28;20049;-73
2021/12/02 02:03:54;;;;;;;10.48;2.92;;;;;;;5.88;100.00;99422.34;5020257;28;20552;-71
2021/12/02 02:06:38;;;;;;;8.90;1.30;;;;;;;5.84;100.00;99419.59;5028626;28;21672;-72
2021/12/02 02:09:06;;;;;;;17.38;2.72;;;;;;;5.91;100.00;99422.34;5022124;28;20049;-71
2021/12/02 02:11:33;;;;;;;10.15;2.70;;;;;;;5.83;100.00;99420.00;5028822;28;20045;-72
2021/12/02 02:14:00;;;;;;;17.95;4.22;;;;;;;5.88;100.00;99425.09;5034933;28;20084;-74
2021/12/02 02:16:28;;;;;;;17.88;2.92;;;;;;;5.82;100.00;99419.22;5027140;28;20417;-72
2021/12/02 02:18:54;;;;;;;1.45;0.70;;;;;;;5.81;100.00;99430.56;5023414;28;20124;-75
2021/12/02 02:21:23;;;;;;;9.82;2.03;;;;;;;5.82;100.00;99423.91;5021721;28;20103;-71
2021/12/02 02:23:57;;;;;;;13.13;2.95;;;;;;;5.88;100.00;99419.59;5026206;28;20068;-74
2021/12/02 02:26:27;;;;;;;16.15;3.22;;;;;;;5.86;100.00;99413.72;5021910;28;20164;-72
2021/12/02 02:28:55;;;;;;;4.90;1.63;;;;;;;5.76;100.00;99420.78;5020716;28;20141;-72
2021/12/02 02:31:23;;;;;;;7.78;1.92;;;;;;;5.76;100.00;99422.72;5024549;28;20144;-72
2021/12/02 02:33:52;;;;;;;14.25;2.60;;;;;;;5.86;100.00;99424.69;5025166;28;20141;-76
2021/12/02 02:36:21;;;;;;;13.82;2.00;;;;;;;5.83;100.00;99420.00;5024686;28;20145;-73
2021/12/02 02:38:58;;;;;;;11.23;2.33;;;;;;;5.80;100.00;99429.00;5024145;28;21236;-72
2021/12/02 02:41:32;;;;;;;12.10;2.90;;;;;;;5.80;100.00;99429.78;5018212;28;20132;-76
2021/12/02 02:43:59;;;;;;;7.80;1.48;;;;;;;5.72;100.00;99441.94;5027277;28;20050;-73
2021/12/02 02:46:32;;;;;;;10.45;2.47;;;;;;;5.50;100.00;99451.38;5025980;28;20064;-73
2021/12/02 02:49:01;;;;;;;4.03;1.50;;;;;;;5.60;100.00;99445.09;5027372;28;20466;-73
2021/12/02 02:51:30;;;;;;;12.40;2.45;;;;;;;5.59;100.00;99450.97;5024592;28;20081;-72
2021/12/02 02:54:00;;;;;;;9.95;2.67;;;;;;;5.53;100.00;99450.59;5023052;28;20072;-73
2021/12/02 02:56:30;;;;;;;5.65;2.85;;;;;;;5.48;100.00;99442.78;5016908;28;20089;-73
2021/12/02 02:59:05;;;;;;;8.57;3.38;;;;;;;5.39;100.00;99451.41;5023632;28;20613;-73
2021/12/02 03:07:00;;;;;;;9.85;2.78;;;;;;;5.22;100.00;99445.91;5022693;28;20049;-72
2021/12/02 03:12:06;;;;;;;10.25;3.28;;;;;;;5.13;100.00;99434.56;5027766;28;20168;-73
2021/12/02 03:16:43;;;;;;;8.70;2.92;;;;;;;5.06;100.00;99435.34;5028655;28;20055;-72
2021/12/02 03:17:21;;;;;;;9.00;3.00;;;;;;;5.06;100.00;99432.59;5027086;28;20053;-73
2021/12/02 03:19:48;;;;;;;10.38;3.15;;;;;;;5.02;100.00;99445.53;5025523;28;20137;-72
2021/12/02 03:22:17;;;;;;;8.18;2.60;;;;;;;4.89;100.00;99441.59;5027002;28;20086;-72
2021/12/02 03:24:43;;;;;;;10.50;2.80;;;;;;;4.89;100.00;99438.84;5028546;28;20056;-73
2021/12/02 03:27:11;;;;;;;8.95;3.17;;;;;;;4.83;100.00;99429.44;5023638;28;20088;-73
2021/12/02 03:29:39;;;;;;;7.65;3.42;;;;;;;4.80;100.00;99440.41;5021463;28;20609;-72
2021/12/02 03:32:06;;;;;;;11.32;3.22;;;;;;;4.75;100.00;99435.28;5026254;28;20136;-76
2021/12/02 03:34:33;;;;;;;8.10;3.03;;;;;;;4.73;100.00;99446.66;5026167;28;20057;-75
2021/12/02 03:37:00;;;;;;;10.35;3.30;;;;;;;4.71;100.00;99448.22;5024495;28;20131;-73
2021/12/02 03:39:27;;;;;;;9.75;2.75;;;;;;;4.70;100.00;99450.16;5028370;28;20064;-76
2021/12/02 03:41:54;;;;;;;6.32;3.15;;;;;;;4.70;100.00;99449.41;5026815;28;20500;-72
2021/12/02 03:44:22;;;;;;;8.68;3.47;;;;;;;4.59;100.00;99441.13;5019715;28;20064;-72
2021/12/02 03:46:50;;;;;;;8.35;2.80;;;;;;;4.57;100.00;99448.97;5024986;28;20068;-74
2021/12/02 03:49:17;;;;;;;8.85;2.88;;;;;;;4.51;100.00;99446.97;5026853;28;20119;-73
2021/12/02 03:51:43;;;;;;;10.25;2.30;;;;;;;4.45;100.00;99435.63;5029271;28;20139;-73
2021/12/02 03:54:10;;;;;;;3.80;2.05;;;;;;;4.45;100.00;99434.84;5028729;28;20105;-74
2021/12/02 03:56:37;;;;;;;0.82;0.70;;;;;;;4.39;100.00;99441.88;5026689;28;20526;-73
2021/12/02 03:59:03;;;;;;;3.53;1.40;;;;;;;4.46;100.00;99448.13;5026406;28;20133;-74
2021/12/02 04:01:30;;;;;;;6.05;2.00;;;;;;;4.46;100.00;99431.72;5027441;28;20156;-73
2021/12/02 04:03:57;;;;;;;8.88;2.10;;;;;;;4.51;100.00;99427.81;5027581;28;20521;-72
2021/12/02 04:06:23;;;;;;;6.88;2.42;;;;;;;4.51;100.00;99428.59;5027486;28;20128;-75
2021/12/02 04:08:53;;;;;;;5.55;2.38;;;;;;;4.51;100.00;99436.81;5026986;28;20135;-72
2021/12/02 04:16:52;;;;;;;10.77;2.50;;;;;;;4.46;100.00;99434.44;5022850;28;20148;-75
2021/12/02 04:19:20;;;;;;;4.90;2.17;;;;;;;4.43;100.00;99439.94;5026681;28;20585;-72
2021/12/02 04:21:47;;;;;;;16.92;3.08;;;;;;;4.43;100.00;99448.16;5028007;28;20135;-72
2021/12/02 04:24:13;;;;;;;7.60;2.83;;;;;;;4.44;100.00;99452.44;5029792;28;20103;-76
2021/12/02 04:26:42;;;;;;;8.60;2.78;;;;;;;4.41;100.00;99459.47;5025231;28;20045;-73
2021/12/02 04:29:10;;;;;;;7.70;2.92;;;;;;;4.45;100.00;99456.75;5034673;28;20060;-73
2021/12/02 04:31:40;;;;;;;5.38;2.42;;;;;;;4.39;100.00;99448.13;5022805;28;20042;-72
2021/12/02 04:34:06;;;;;;;2.42;1.15;;;;;;;4.35;100.00;99444.59;5025767;28;20052;-74
2021/12/02 04:36:33;;;;;;;6.25;2.47;;;;;;;4.42;100.00;99449.31;5028123;28;20084;-73
2021/12/02 04:38:59;;;;;;;3.13;1.92;;;;;;;4.40;100.00;99449.72;5033498;28;20063;-72
2021/12/02 04:41:26;;;;;;;7.53;2.30;;;;;;;4.46;100.00;99455.59;5036277;28;20060;-72
2021/12/02 04:43:52;;;;;;;10.65;3.00;;;;;;;4.44;100.00;99455.97;5038959;28;20056;-72
2021/12/02 04:46:19;;;;;;;1.80;1.48;;;;;;;4.49;100.00;99458.31;5027320;28;20107;-72
2021/12/02 04:48:46;;;;;;;3.78;1.75;;;;;;;4.50;100.00;99459.13;5027828;28;20499;-72
2021/12/02 04:51:13;;;;;;;0.90;0.63;;;;;;;4.46;100.00;99459.09;5030508;28;20053;-72
2021/12/02 04:53:39;;;;;;;6.97;2.10;;;;;;;4.49;100.00;99463.03;5041141;28;20079;-73
2021/12/02 04:56:06;;;;;;;12.05;3.05;;;;;;;4.51;100.00;99472.44;5037588;28;20051;-73
2021/12/02 04:58:33;;;;;;;10.85;2.90;;;;;;;4.52;100.00;99463.03;5025315;28;20115;-71
2021/12/02 05:00:59;;;;;;;2.33;1.30;;;;;;;4.47;100.00;99463.44;5032868;28;20135;-75
2021/12/02 05:03:26;;;;;;;4.22;1.92;;;;;;;4.48;100.00;99461.44;5039167;28;20049;-74
2021/12/02 05:05:53;;;;;;;4.35;1.67;;;;;;;4.44;100.00;99455.19;5037319;28;20057;-72
2021/12/02 05:08:20;;;;;;;3.92;1.80;;;;;;;4.47;100.00;99462.63;5022230;28;20767;-73
2021/12/02 05:10:46;;;;;;;4.43;1.83;;;;;;;4.42;100.00;99446.59;5035132;28;20148;-71
2021/12/02 05:13:13;;;;;;;7.88;2.72;;;;;;;4.46;100.00;99453.63;5039652;28;20042;-72
2021/12/02 05:15:40;;;;;;;1.83;1.15;;;;;;;4.41;100.00;99464.97;5038801;28;20055;-73
2021/12/02 05:18:06;;;;;;;5.68;2.25;;;;;;;4.43;100.00;99459.91;5029422;28;20141;-76
2021/12/02 05:20:33;;;;;;;10.55;4.72;;;;;;;4.44;100.00;99449.72;5040851;28;20133;-71
2021/12/02 05:22:59;;;;;;;4.80;2.33;;;;;;;4.42;100.00;99452.81;5031212;28;20045;-72
2021/12/02 05:25:26;;;;;;;6.05;1.85;;;;;;;4.31;100.00;99438.31;5029582;28;20067;-71
2021/12/02 05:27:52;;;;;;;3.20;1.88;;;;;;;4.33;100.00;99454.38;5027084;28;20520;-73
2021/12/02 05:30:19;;;;;;;9.05;4.05;;;;;;;4.42;100.00;99455.56;5028808;28;20073;-72
2021/12/02 05:32:46;;;;;;;13.90;3.15;;;;;;;4.36;100.00;99465.31;5029106;28;20049;-73
2021/12/02 05:35:13;;;;;;;5.63;3.22;;;;;;;4.38;100.00;99462.19;5023750;28;20049;-74
2021/12/02 05:37:39;;;;;;;6.45;3.10;;;;;;;4.36;100.00;99464.56;5033920;28;20083;-73
2021/12/02 05:40:06;;;;;;;10.60;2.35;;;;;;;4.31;100.00;99460.22;5030296;28;20081;-72
2021/12/02 05:42:33;;;;;;;10.50;3.00;;;;;;;4.33;100.00;99459.84;5033648;28;20124;-73
2021/12/02 05:45:00;;;;;;;6.60;2.58;;;;;;;4.34;100.00;99469.63;5029387;28;20119;-73
2021/12/02 05:47:26;;;;;;;5.07;1.63;;;;;;;4.23;100.00;99455.91;5029887;28;20148;-74
2021/12/02 05:49:53;;;;;;;4.45;1.75;;;;;;;4.25;100.00;99456.28;5029937;28;20132;-73
2021/12/02 05:52:20;;;;;;;9.00;2.55;;;;;;;4.27;100.00;99462.16;5031682;28;20132;-75
2021/12/02 05:54:46;;;;;;;5.78;2.28;;;;;;;4.26;100.00;99465.28;5029564;28;20049;-75
2021/12/02 05:57:13;;;;;;;5.95;2.30;;;;;;;4.29;100.00;99473.50;5029940;28;20048;-71
2021/12/02 05:59:40;;;;;;;10.77;2.13;;;;;;;4.24;100.00;99471.16;5029878;28;20051;-73
2021/12/02 06:02:07;;;;;;;4.70;1.83;;;;;;;4.25;100.00;99480.16;5030140;28;20053;-74
2021/12/02 06:04:37;;;;;;;6.25;1.77;;;;;;;4.23;100.00;99480.53;5024368;28;20053;-73
2021/12/02 06:07:04;;;;;;;6.75;1.95;;;;;;;4.25;100.00;99480.94;5029597;28;20072;-72
2021/12/02 06:09:32;;;;;;;7.40;1.85;;;;;;;4.24;100.00;99481.31;5028023;28;20049;-72
2021/12/02 06:11:58;;;;;;;4.75;1.70;;;;;;;4.23;100.00;99494.22;5042479;28;20045;-74
2021/12/02 06:14:25;;;;;;;0.35;0.35;;;;;;;4.18;100.00;99493.78;5036837;28;20051;-73
2021/12/02 06:16:52;;;;;;;7.18;1.77;;;;;;;4.22;100.00;99502.81;5028663;28;20092;-73
2021/12/02 06:19:18;;;;;;;1.55;1.05;;;;;;;4.14;100.00;99496.53;5030418;28;20132;-73
2021/12/02 06:21:45;;;;;;;7.07;1.92;;;;;;;4.19;100.00;99498.88;5046519;28;20092;-72
2021/12/02 06:24:12;;;;;;;0.77;0.75;;;;;;;4.17;100.00;99500.44;5034916;28;20091;-73
2021/12/02 06:26:39;;;;;;;8.20;2.05;;;;;;;4.22;100.00;99502.81;5041610;28;20131;-74
2021/12/02 06:29:05;;;;;;;3.55;1.55;;;;;;;4.19;100.00;99498.88;5028650;28;20512;-73
2021/12/02 06:31:32;;;;;;;6.95;2.20;;;;;;;4.24;100.00;99511.44;5031885;28;20088;-72
2021/12/02 06:33:59;;;;;;;4.95;1.38;;;;;;;4.22;100.00;99508.31;5033519;28;20049;-72
2021/12/02 06:36:25;;;;;;;7.68;2.08;;;;;;;4.19;100.00;99495.38;5027372;28;20071;-73
2021/12/02 06:38:58;;;;;;;3.28;1.27;;;;;;;4.24;100.00;99514.97;5036095;28;20421;-72
2021/12/02 06:41:25;;;;;;;5.85;1.73;;;;;;;4.28;100.00;99515.75;5025736;28;20207;-74
2021/12/02 06:43:51;;;;;;;4.90;0.68;;;;;;;4.25;100.00;99519.25;5029244;28;20061;-73
2021/12/02 06:46:18;;;;;;;6.53;1.63;;;;;;;4.32;100.00;99530.25;5030493;28;20125;-72
2021/12/02 06:48:47;;;;;;;6.45;1.88;;;;;;;4.35;100.00;99523.19;5029175;28;20060;-72
2021/12/02 06:51:14;;;;;;;8.02;1.85;;;;;;;4.32;100.00;99519.28;5033800;28;20901;-72
2021/12/02 06:53:41;;;;;;;2.33;0.98;;;;;;;4.34;100.00;99527.91;5028221;28;20049;-71
2021/12/02 06:56:08;;;;;;;6.28;1.70;;;;;;;4.36;100.00;99533.00;5024747;28;20059;-76
2021/12/02 06:58:34;;;;;;;5.68;2.40;;;;;;;4.38;100.00;99519.69;5029276;28;20128;-78
2021/12/02 07:01:01;;;;;;;6.72;2.25;;;;;;;4.38;100.00;99522.44;5030996;28;20081;-74
2021/12/02 07:03:28;;;;;;;7.00;3.30;;;;;;;4.34;100.00;99524.38;5031872;28;20140;-75
2021/12/02 07:05:55;;;;;;;6.70;2.30;;;;;;;4.35;100.00;99524.00;5027277;28;20049;-75
2021/12/02 07:08:22;;;;;;;11.18;2.30;;;;;;;4.43;100.00;99539.31;5030993;28;20398;-76
2021/12/02 07:10:48;;;;;;;3.90;1.90;;;;;;;4.38;100.00;99534.19;5026720;28;20081;-75
2021/12/02 07:13:16;;;;;;;9.43;2.80;;;;;;;4.35;100.00;99534.97;5030846;28;20073;-75
2021/12/02 07:15:50;;;;;;;15.70;3.65;;;;;;;4.44;100.00;99540.09;5030649;28;20076;-74
2021/12/02 07:18:16;;;;;;;7.90;3.10;;;;;;;4.39;100.00;99543.19;5021972;28;20054;-75
2021/12/02 07:20:46;;;;;;;11.80;3.17;;;;;;;4.41;100.00;99560.00;5036158;28;20049;-75
2021/12/02 07:23:15;;;;;;;13.43;5.07;;;;;;;4.45;100.00;99560.81;5029961;28;20049;-74
2021/12/02 07:25:42;;;;;;;11.93;4.35;;;;;;;4.39;100.00;99556.91;5037991;28;20060;-75
2021/12/02 07:28:10;;;;;;;12.90;4.80;;;;;;;4.47;100.00;99553.00;5021527;28;20076;-76
2021/12/02 07:30:37;;;;;;;16.33;5.28;;;;;;;4.41;100.00;99558.06;5029819;28;20711;-74
2021/12/02 07:33:06;;;;;;;18.10;6.57;;;;;;;4.48;100.00;99571.00;5030595;28;20220;-74
2021/12/02 07:35:33;;;;;;;20.80;6.63;;;;;;;4.45;100.00;99569.81;5033779;28;20136;-74
2021/12/02 07:38:01;;;;;;;7.38;2.97;;;;;;;4.45;100.00;99582.72;5033164;28;20147;-75
2021/12/02 07:40:36;;;;;;;15.73;5.65;;;;;;;4.53;100.00;99582.38;5033441;28;20068;-74
2021/12/02 07:43:04;;;;;;;11.57;4.88;;;;;;;4.48;100.00;99587.44;5030046;28;20081;-75
2021/12/02 07:45:35;;;;;;;11.02;3.22;;;;;;;4.46;100.00;99590.56;5028471;28;20132;-72
2021/12/02 07:48:04;;;;;;;10.25;3.10;;;;;;;4.46;100.00;99589.78;5028575;28;20099;-72
2021/12/02 07:50:31;;;;;;;15.43;4.53;;;;;;;4.44;100.00;99590.19;5037483;28;20064;-74
2021/12/02 07:53:01;;;;;;;7.55;3.67;;;;;;;4.44;100.00;99597.59;5027433;28;20155;-73
2021/12/02 07:55:28;;;;;;;7.25;2.60;;;;;;;4.42;100.00;99597.22;5029702;28;20156;-73
2021/12/02 07:57:56;;;;;;;8.93;3.55;;;;;;;4.44;100.00;99601.13;5029491;28;20047;-72
2021/12/02 08:00:27;;;;;;;10.35;3.88;;;;;;;4.49;100.00;99599.97;5033113;28;20060;-74
2021/12/02 08:02:54;;;;;;;11.82;4.15;;;;;;;4.45;100.00;99612.84;5036846;28;20102;-72
2021/12/02 08:05:23;;;;;;;7.28;2.97;;;;;;;4.45;100.00;99621.88;5047868;28;20140;-69
2021/12/02 08:07:50;;;;;;;10.38;3.50;;;;;;;4.48;100.00;99620.31;5039682;28;20502;-68
2021/12/02 08:10:17;;;;;;;7.93;3.03;;;;;;;4.49;100.00;99622.66;5026171;28;20461;-71
2021/12/02 08:12:47;;;;;;;9.43;2.63;;;;;;;4.46;100.00;99619.91;5025502;28;20079;-72
2021/12/02 08:15:17;;;;;;;7.53;2.90;;;;;;;4.43;100.00;99618.75;5044911;28;20080;-73
2021/12/02 08:17:44;;;;;;;5.55;2.58;;;;;;;4.30;100.00;99619.41;5028132;28;20057;-73
2021/12/02 08:20:10;;;;;;;7.25;2.53;;;;;;;4.30;100.00;99625.69;5030954;28;20473;-73
2021/12/02 08:22:37;;;;;;;9.23;2.80;;;;;;;4.33;100.00;99635.09;5038863;28;20141;-73
2021/12/02 08:25:04;;;;;;;1.08;0.98;;;;;;;4.18;100.00;99639.69;5028397;28;20049;-73
2021/12/02 08:27:31;;;;;;;5.65;2.65;;;;;;;4.26;100.00;99640.53;5029028;28;20060;-72
2021/12/02 08:29:57;;;;;;;6.30;2.80;;;;;;;4.28;100.00;99641.72;5026560;28;20140;-73
2021/12/02 08:32:24;;;;;;;5.07;2.55;;;;;;;4.30;100.00;99653.06;5022576;28;20172;-73
2021/12/02 08:34:53;;;;;;;7.90;2.83;;;;;;;4.31;100.00;99653.84;5030907;28;20221;-72
2021/12/02 08:37:21;;;;;;;9.38;2.67;;;;;;;4.29;100.00;99654.22;5031860;28;20049;-74
2021/12/02 08:39:48;;;;;;;5.50;2.72;;;;;;;4.33;100.00;99660.53;5028421;28;20088;-73
2021/12/02 08:42:16;;;;;;;5.78;2.83;;;;;;;4.35;100.00;99660.91;5027665;28;20111;-73
2021/12/02 08:44:44;;;;;;;9.15;3.33;;;;;;;4.34;100.00;99653.88;5018664;28;20589;-74
2021/12/02 08:47:12;;;;;;;7.07;2.70;;;;;;;4.34;100.00;99669.50;5044862;28;20083;-73
2021/12/02 08:49:38;;;;;;;13.93;3.38;;;;;;;4.36;100.00;99672.66;5051669;28;20079;-74
2021/12/02 08:52:05;;;;;;;9.65;3.90;;;;;;;4.38;100.00;99662.91;5051912;28;20055;-73
2021/12/02 08:54:32;;;;;;;11.75;4.38;;;;;;;4.39;100.00;99669.19;5052668;28;20127;-74
2021/12/02 08:56:58;;;;;;;1.85;1.45;;;;;;;4.31;100.00;99671.06;5035276;28;20037;-74
2021/12/02 08:59:25;;;;;;;10.20;3.78;;;;;;;4.35;100.00;99677.34;5032345;28;20137;-73
2021/12/02 09:01:51;;;;;;;10.10;3.03;;;;;;;4.28;100.00;99657.34;5031627;28;20080;-75
2021/12/02 09:04:19;;;;;;;12.10;3.97;;;;;;;4.49;100.00;99671.97;5030273;28;20056;-73
2021/12/02 09:06:45;;;;;;;11.52;4.00;;;;;;;4.48;100.00;99686.84;5032441;28;20132;-74
2021/12/02 09:09:12;;;;;;;1.30;0.93;;;;;;;4.44;100.00;99683.28;5031663;28;20071;-73
2021/12/02 09:11:39;;;;;;;8.23;3.53;;;;;;;4.48;100.00;99678.63;5028246;28;20109;-73
2021/12/02 09:14:06;;;;;;;10.10;3.85;;;;;;;4.63;100.00;99677.53;5043866;28;20131;-73
2021/12/02 09:16:33;;;;;;;7.78;3.05;;;;;;;4.70;100.00;99694.00;5034036;28;20053;-75
2021/12/02 09:19:00;;;;;;;0.82;0.82;;;;;;;4.61;100.00;99699.06;5040311;28;20089;-73
2021/12/02 09:21:28;;;;;;;5.75;2.17;;;;;;;4.65;100.00;99694.38;5049981;28;20076;-73
2021/12/02 09:23:55;;;;;;;2.35;0.95;;;;;;;4.68;100.00;99706.53;5030758;28;20049;-72
2021/12/02 09:26:22;;;;;;;9.75;3.08;;;;;;;4.83;100.00;99708.19;5031224;28;20107;-73
2021/12/02 09:28:57;;;;;;;8.25;2.92;;;;;;;4.86;100.00;99719.16;5030966;28;20077;-74
2021/12/02 09:31:24;;;;;;;5.30;2.75;;;;;;;4.89;100.00;99721.16;5033869;28;20135;-75
2021/12/02 09:33:51;;;;;;;4.53;1.95;;;;;;;4.74;100.00;99722.25;5049930;28;20437;-74
2021/12/02 09:36:19;;;;;;;5.68;1.77;;;;;;;4.63;100.00;99737.81;5033612;28;20567;-73
2021/12/02 09:38:46;;;;;;;5.65;2.42;;;;;;;4.73;100.00;99726.13;5034114;28;20083;-75
2021/12/02 09:41:13;;;;;;;7.65;2.85;;;;;;;4.71;100.00;99733.16;5031159;28;20476;-72
2021/12/02 09:43:40;;;;;;;7.75;3.10;;;;;;;4.77;100.00;99728.91;5042838;28;20152;-74
2021/12/02 09:46:08;;;;;;;3.65;1.83;;;;;;;4.77;100.00;99737.94;5034061;28;20057;-73
2021/12/02 09:48:36;;;;;;;6.85;3.20;;;;;;;4.78;100.00;99733.22;5027470;28;20533;-76
2021/12/02 09:51:07;;;;;;;8.13;3.15;;;;;;;4.79;100.00;99741.06;5033395;28;20152;-73
2021/12/02 09:58:50;;;;;;;0.93;0.65;;;;;;;4.65;100.00;99732.75;5030815;28;20088;-73
2021/12/02 10:01:19;;;;;;;6.45;2.17;;;;;;;4.50;100.00;99733.81;5029891;28;20140;-73
2021/12/02 10:03:52;;;;;;;5.00;1.77;;;;;;;4.56;100.00;99742.47;5032018;28;20071;-74
2021/12/02 10:06:29;;;;;;;4.38;2.13;;;;;;;4.61;100.00;99734.69;5040761;28;20115;-73
2021/12/02 10:09:09;;;;;;;6.45;3.42;;;;;;;4.66;100.00;99745.25;5027092;28;20153;-73
2021/12/02 10:11:45;;;;;;;3.97;1.77;;;;;;;4.59;100.00;99742.47;5027526;28;20160;-72
2021/12/02 10:14:16;;;;;;;5.45;1.90;;;;;;;4.56;100.00;99742.47;5025979;28;20434;-72
2021/12/02 10:16:45;;;;;;;6.38;2.38;;;;;;;4.64;100.00;99738.59;5029254;28;20081;-73
2021/12/02 10:19:16;;;;;;;9.68;3.58;;;;;;;4.74;100.00;99746.91;5028321;28;20045;-73
2021/12/02 10:21:53;;;;;;;7.65;3.47;;;;;;;4.75;100.00;99751.22;5023988;28;20060;-74
2021/12/02 10:24:23;;;;;;;6.80;2.25;;;;;;;4.72;100.00;99746.50;5028133;28;20133;-73
2021/12/02 10:27:00;;;;;;;11.27;3.17;;;;;;;4.74;100.00;99752.38;5022473;28;20158;-72
2021/12/02 10:29:46;;;;;;;9.90;4.00;;;;;;;4.76;100.00;99755.50;5032436;28;20056;-73
2021/12/02 10:32:18;;;;;;;10.07;4.32;;;;;;;4.74;100.00;99744.16;5023036;28;20069;-73
2021/12/02 10:35:06;;;;;;;8.50;3.60;;;;;;;4.78;100.00;99750.44;5028608;28;20042;-72
2021/12/02 10:37:36;;;;;;;11.27;4.35;;;;;;;4.81;100.00;99748.88;5029360;28;20076;-73
2021/12/02 10:40:05;;;;;;;10.70;4.70;;;;;;;4.84;100.00;99746.19;5026417;28;20045;-72
2021/12/02 10:42:34;;;;;;;8.23;2.22;;;;;;;4.66;100.00;99750.75;5028132;28;20868;-72
2021/12/02 10:45:03;;;;;;;7.95;3.22;;;;;;;4.68;100.00;99748.41;5026522;28;20049;-73
2021/12/02 10:47:30;;;;;;;9.30;3.50;;;;;;;4.71;100.00;99750.41;5029211;28;20231;-74
2021/12/02 10:50:00;;;;;;;7.50;2.95;;;;;;;4.72;100.00;99760.19;5040438;28;20116;-71
2021/12/02 10:52:30;;;;;;;6.97;2.20;;;;;;;4.74;100.00;99765.28;5033726;28;20140;-71
2021/12/02 10:55:04;;;;;;;4.20;2.08;;;;;;;4.73;100.00;99763.72;5037977;28;20056;-74
2021/12/02 10:57:33;;;;;;;1.00;0.98;;;;;;;4.81;100.00;99766.13;5013931;28;20539;-73
2021/12/02 11:00:01;;;;;;;5.07;2.35;;;;;;;4.78;100.00;99760.63;5015728;28;20181;-74
2021/12/02 11:02:35;;;;;;;10.38;3.28;;;;;;;4.83;100.00;99769.25;5014613;28;20049;-74
2021/12/02 11:05:21;;;;;;;6.07;2.83;;;;;;;4.74;100.00;99755.13;5011185;28;20095;-73
2021/12/02 11:07:52;;;;;;;9.18;3.28;;;;;;;4.78;100.00;99757.88;5010743;28;20112;-76
2021/12/02 11:10:19;;;;;;;10.30;3.60;;;;;;;4.83;100.00;99768.50;5022428;28;20049;-75
2021/12/02 11:12:50;;;;;;;7.82;3.58;;;;;;;4.87;100.00;99775.53;5024571;28;20151;-73
2021/12/02 11:15:22;;;;;;;8.60;3.53;;;;;;;4.86;100.00;99773.97;5020574;28;20140;-73
2021/12/02 11:18:01;;;;;;;12.07;4.00;;;;;;;4.88;100.00;99774.41;5023587;28;20132;-76
2021/12/02 11:20:34;;;;;;;11.20;3.63;;;;;;;4.90;100.00;99774.78;5024736;28;20124;-74
2021/12/02 11:23:01;;;;;;;9.45;3.70;;;;;;;4.83;100.00;99774.75;5031100;28;20565;-73
2021/12/02 11:25:28;;;;;;;9.13;2.67;;;;;;;4.81;100.00;99773.56;5025053;28;20135;-73
2021/12/02 11:27:55;;;;;;;7.68;3.50;;;;;;;4.87;100.00;99770.06;5029126;28;20042;-74
2021/12/02 11:30:25;;;;;;;8.38;4.13;;;;;;;4.92;100.00;99768.91;5026246;28;20060;-75
2021/12/02 11:33:03;;;;;;;5.70;2.17;;;;;;;4.86;100.00;99765.75;5022674;28;20050;-73
2021/12/02 11:35:32;;;;;;;9.00;3.67;;;;;;;4.96;100.00;99762.31;5015931;28;20256;-75
2021/12/02 11:38:25;;;;;;;9.18;3.15;;;;;;;4.88;100.00;99766.19;5026498;28;20065;-73
2021/12/02 11:41:04;;;;;;;9.50;3.72;;;;;;;4.96;100.00;99756.81;5025319;28;20068;-73
2021/12/02 11:43:33;;;;;;;9.95;3.97;;;;;;;5.01;100.00;99763.91;5027290;28;20057;-73
2021/12/02 11:46:02;;;;;;;10.32;3.45;;;;;;;4.99;100.00;99755.25;5028495;28;20045;-72
2021/12/02 11:48:34;;;;;;;4.60;2.30;;;;;;;5.02;100.00;99765.47;5027228;28;20054;-74
2021/12/02 11:51:06;;;;;;;3.58;1.50;;;;;;;5.00;100.00;99771.31;5033061;28;20057;-73
2021/12/02 11:53:33;;;;;;;5.55;2.60;;;;;;;5.01;100.00;99780.34;5034991;28;20678;-72
2021/12/02 11:56:06;;;;;;;13.68;4.00;;;;;;;5.15;100.00;99766.72;5026544;28;20099;-72
2021/12/02 11:58:33;;;;;;;3.78;1.67;;;;;;;5.43;100.00;99766.84;5020725;28;20056;-73
2021/12/02 12:01:00;;;;;;;7.00;3.22;;;;;;;6.28;94.74;99765.91;5011120;28;20077;-74
2021/12/02 12:03:37;;;;;;;8.20;3.45;;;;;;;6.87;94.04;99775.34;5010650;28;20080;-74